Time;durP1;ratioP1;P1;durP2;ratioP2;P2;SDS_P1;SDS_P2;PMS_P1;PMS_P2;Temp;Humidity;BMP_temperature;BMP_pressure;BME280_temperature;BME280_humidity;BME280_pressure;Samples;Min_cycle;Max_cycle;Signal;HPM_P1;HPM_P2
2021/07/23 00:01:19;;;;;;;3.53;2.87;;;14.80;99.90;;;;;;5042848;28;20548;-46
2021/07/23 00:03:47;;;;;;;3.70;2.90;;;14.70;99.90;;;;;;5029861;28;20207;-44
2021/07/23 00:06:14;;;;;;;3.30;2.60;;;14.70;99.90;;;;;;5043044;28;20211;-46
2021/07/23 00:08:41;;;;;;;4.00;2.80;;;14.70;99.90;;;;;;5037752;28;20207;-50
2021/07/23 00:11:07;;;;;;;3.07;2.77;;;14.80;99.90;;;;;;5044173;28;20266;-47
2021/07/23 00:13:34;;;;;;;5.13;2.83;;;14.80;99.90;;;;;;5040741;28;20503;-45
2021/07/23 00:16:01;;;;;;;3.37;2.70;;;14.80;99.90;;;;;;5040100;28;20223;-44
2021/07/23 00:18:29;;;;;;;4.43;2.83;;;14.80;99.90;;;;;;5039392;28;20676;-47
2021/07/23 00:20:55;;;;;;;7.47;3.20;;;14.80;99.90;;;;;;5030830;28;20213;-44
2021/07/23 00:23:22;;;;;;;5.67;3.70;;;14.90;99.90;;;;;;5040921;28;20203;-45
2021/07/23 00:25:48;;;;;;;5.57;2.80;;;14.90;99.90;;;;;;5038869;28;20226;-44
2021/07/23 00:28:16;;;;;;;3.83;3.10;;;15.00;99.90;;;;;;5042342;28;20214;-50
2021/07/23 00:30:43;;;;;;;4.23;3.83;;;15.00;99.90;;;;;;5036644;28;20826;-43
2021/07/23 00:33:12;;;;;;;4.93;3.80;;;15.00;99.90;;;;;;5042854;28;20191;-50
2021/07/23 00:35:40;;;;;;;7.50;3.67;;;15.00;99.90;;;;;;5028306;28;20223;-44
2021/07/23 00:38:06;;;;;;;4.70;4.07;;;15.10;99.90;;;;;;5036617;28;20191;-43
2021/07/23 00:40:34;;;;;;;6.13;3.67;;;15.10;99.90;;;;;;5035395;28;20201;-47
2021/07/23 00:43:00;;;;;;;7.13;4.33;;;15.10;99.90;;;;;;5044266;28;20192;-45
2021/07/23 00:45:27;;;;;;;4.27;3.87;;;15.10;99.90;;;;;;5039736;28;20215;-45
2021/07/23 00:47:57;;;;;;;5.67;4.20;;;15.20;99.90;;;;;;5039005;28;20234;-44
2021/07/23 00:50:25;;;;;;;5.67;3.80;;;15.20;99.90;;;;;;5027432;28;20245;-47
2021/07/23 00:52:54;;;;;;;5.57;3.47;;;15.10;99.90;;;;;;5043531;28;20280;-44
2021/07/23 00:55:23;;;;;;;6.73;4.70;;;15.20;99.90;;;;;;5027521;28;20211;-49
2021/07/23 00:57:50;;;;;;;5.77;4.47;;;15.20;99.90;;;;;;5042716;28;20203;-46
2021/07/23 01:00:18;;;;;;;4.23;3.83;;;15.20;99.90;;;;;;5041760;28;20566;-47
2021/07/23 01:03:02;;;;;;;7.53;4.50;;;15.20;99.90;;;;;;5039445;28;20296;-46
2021/07/23 01:05:30;;;;;;;5.47;4.53;;;15.20;99.90;;;;;;5040522;28;20528;-48
2021/07/23 01:08:01;;;;;;;7.97;4.60;;;15.20;99.90;;;;;;5030089;28;20295;-45
2021/07/23 01:10:29;;;;;;;6.30;4.40;;;15.30;99.90;;;;;;5037438;28;20994;-44
2021/07/23 01:13:11;;;;;;;8.27;4.50;;;15.30;99.90;;;;;;5035121;28;20207;-48
2021/07/23 01:15:38;;;;;;;7.03;4.17;;;15.30;99.90;;;;;;5025366;28;20203;-43
2021/07/23 01:18:06;;;;;;;8.03;4.53;;;15.30;99.90;;;;;;5040432;28;20672;-46
2021/07/23 01:20:33;;;;;;;6.87;5.30;;;15.30;99.90;;;;;;5038285;28;20203;-45
2021/07/23 01:23:04;;;;;;;5.83;4.70;;;15.30;99.90;;;;;;5030944;28;20332;-43
2021/07/23 01:25:35;;;;;;;8.47;5.00;;;15.30;99.90;;;;;;5032953;28;20208;-43
2021/07/23 01:28:03;;;;;;;8.37;4.77;;;15.40;99.90;;;;;;5034862;28;20250;-44
2021/07/23 01:30:36;;;;;;;7.77;5.10;;;15.40;99.90;;;;;;5039785;28;20194;-43
2021/07/23 01:33:14;;;;;;;7.70;5.37;;;15.40;99.90;;;;;;5035753;28;20214;-45
2021/07/23 01:35:42;;;;;;;7.17;5.93;;;15.30;99.90;;;;;;5042986;28;20234;-43
2021/07/23 01:38:11;;;;;;;8.63;6.13;;;15.30;99.90;;;;;;5043885;28;20199;-49
2021/07/23 01:40:39;;;;;;;8.93;5.67;;;15.30;99.90;;;;;;5032985;28;20203;-42
2021/07/23 01:43:06;;;;;;;9.33;5.73;;;15.20;99.90;;;;;;5039766;28;20638;-42
2021/07/23 01:45:33;;;;;;;7.97;5.67;;;15.30;99.90;;;;;;5041628;28;21012;-46
2021/07/23 01:48:20;;;;;;;7.47;4.90;;;15.30;99.90;;;;;;5038327;28;20199;-45
2021/07/23 01:50:47;;;;;;;7.57;5.63;;;15.20;99.90;;;;;;5026446;28;20192;-44
2021/07/23 01:53:14;;;;;;;8.77;5.37;;;15.30;99.90;;;;;;5041479;28;20202;-49
2021/07/23 01:55:54;;;;;;;6.13;4.60;;;15.30;99.90;;;;;;5044725;28;20219;-44
2021/07/23 01:58:21;;;;;;;10.87;5.70;;;15.30;99.90;;;;;;5037094;28;20207;-51
2021/07/23 02:00:49;;;;;;;5.80;5.20;;;15.40;99.90;;;;;;5042238;28;20676;-43
2021/07/23 02:03:22;;;;;;;8.37;5.53;;;15.40;99.90;;;;;;5038914;28;20657;-48
2021/07/23 02:05:49;;;;;;;9.33;5.40;;;15.30;99.90;;;;;;5044373;28;20708;-43
2021/07/23 02:08:15;;;;;;;6.27;5.70;;;15.40;99.90;;;;;;5028881;28;20725;-49
2021/07/23 02:10:43;;;;;;;9.03;5.70;;;15.30;99.90;;;;;;5040010;28;20945;-43
2021/07/23 02:13:11;;;;;;;8.20;6.00;;;15.20;99.90;;;;;;5042369;28;20207;-45
2021/07/23 02:15:41;;;;;;;7.83;6.00;;;15.30;99.90;;;;;;5043428;28;20860;-44
2021/07/23 02:18:12;;;;;;;7.73;5.63;;;15.20;99.90;;;;;;5045785;28;20188;-48
2021/07/23 02:20:42;;;;;;;7.17;4.97;;;15.20;99.90;;;;;;5041504;28;20206;-44
2021/07/23 02:23:09;;;;;;;6.80;5.40;;;15.30;99.90;;;;;;5041280;28;20203;-46
2021/07/23 02:25:44;;;;;;;5.80;4.43;;;15.30;99.90;;;;;;5030642;28;20610;-43
2021/07/23 02:28:14;;;;;;;10.13;6.10;;;15.40;99.90;;;;;;5041832;28;20669;-48
2021/07/23 02:30:43;;;;;;;5.80;5.20;;;15.40;99.90;;;;;;5044661;28;20191;-43
2021/07/23 02:33:43;;;;;;;8.90;6.00;;;15.40;99.90;;;;;;5014402;28;20309;-44
2021/07/23 02:36:22;;;;;;;8.97;5.87;;;15.30;99.90;;;;;;5035737;28;20241;-45
2021/07/23 02:38:49;;;;;;;8.07;5.77;;;15.30;99.90;;;;;;5044306;28;20196;-43
2021/07/23 02:41:17;;;;;;;6.47;4.83;;;15.40;99.90;;;;;;5029529;28;20207;-46
2021/07/23 02:43:48;;;;;;;5.47;4.90;;;15.40;99.90;;;;;;5028204;28;20207;-44
2021/07/23 02:46:15;;;;;;;6.67;5.20;;;15.40;99.90;;;;;;5043670;28;20215;-48
2021/07/23 02:48:42;;;;;;;8.63;5.87;;;15.40;99.90;;;;;;5043168;28;20196;-43
2021/07/23 02:51:10;;;;;;;8.03;5.10;;;15.40;99.90;;;;;;5039854;28;20633;-47
2021/07/23 02:53:38;;;;;;;9.00;6.10;;;15.40;99.90;;;;;;5042526;28;20894;-43
2021/07/23 02:56:07;;;;;;;9.30;5.53;;;15.40;99.90;;;;;;5032971;28;20219;-42
2021/07/23 02:58:37;;;;;;;7.73;6.03;;;15.40;99.90;;;;;;5043227;28;20187;-44
2021/07/23 03:01:06;;;;;;;6.70;6.00;;;15.40;99.90;;;;;;5035584;28;20204;-46
2021/07/23 03:03:33;;;;;;;9.83;6.10;;;15.40;99.90;;;;;;5022192;28;20783;-46
2021/07/23 03:06:00;;;;;;;8.87;6.37;;;15.40;99.90;;;;;;5032563;28;20296;-45
2021/07/23 03:08:30;;;;;;;6.93;6.17;;;15.50;99.90;;;;;;5037061;28;21006;-43
2021/07/23 03:10:58;;;;;;;8.40;6.27;;;15.50;99.90;;;;;;5032647;28;20216;-43
2021/07/23 03:13:33;;;;;;;9.33;6.43;;;15.50;99.90;;;;;;5041244;28;20300;-43
2021/07/23 03:16:02;;;;;;;9.53;6.47;;;15.40;99.90;;;;;;5041491;28;20245;-44
2021/07/23 03:18:30;;;;;;;7.20;6.20;;;15.40;99.90;;;;;;5032498;28;20204;-46
2021/07/23 03:20:57;;;;;;;9.60;6.37;;;15.40;99.90;;;;;;5027622;28;20208;-45
2021/07/23 03:23:24;;;;;;;8.37;6.77;;;15.40;99.90;;;;;;5038088;28;20214;-50
2021/07/23 03:25:54;;;;;;;9.17;6.43;;;15.50;99.90;;;;;;5045205;28;20705;-46
2021/07/23 03:28:27;;;;;;;8.20;5.70;;;15.50;99.90;;;;;;5026391;28;20207;-45
2021/07/23 03:31:03;;;;;;;6.97;5.87;;;15.50;99.90;;;;;;5039233;28;20203;-44
2021/07/23 03:33:35;;;;;;;9.40;6.50;;;15.50;99.90;;;;;;5040392;28;20788;-44
2021/07/23 03:36:02;;;;;;;8.37;6.80;;;15.50;99.90;;;;;;5043362;28;20681;-43
2021/07/23 03:38:30;;;;;;;7.13;6.00;;;15.60;99.90;;;;;;5046555;28;20219;-45
2021/07/23 03:40:57;;;;;;;8.17;6.47;;;15.50;99.90;;;;;;5043877;28;20199;-43
2021/07/23 03:43:25;;;;;;;10.07;6.67;;;15.50;99.90;;;;;;5027632;28;20629;-49
2021/07/23 03:46:06;;;;;;;6.43;5.70;;;15.50;99.90;;;;;;5031793;28;20215;-49
2021/07/23 03:48:41;;;;;;;8.77;5.57;;;15.50;99.90;;;;;;5036991;28;20962;-46
2021/07/23 03:51:11;;;;;;;8.27;6.20;;;15.50;99.90;;;;;;5042546;28;20196;-58
2021/07/23 03:53:39;;;;;;;9.83;5.93;;;15.50;99.90;;;;;;5037141;28;20798;-46
2021/07/23 03:56:25;;;;;;;8.30;6.20;;;15.50;99.90;;;;;;5038884;28;20587;-59
2021/07/23 03:58:52;;;;;;;7.07;6.10;;;15.50;99.90;;;;;;5029633;28;20216;-45
2021/07/23 04:01:22;;;;;;;11.33;6.77;;;15.60;99.90;;;;;;5039038;28;20202;-60
2021/07/23 04:03:54;;;;;;;7.80;6.43;;;15.60;99.90;;;;;;5040303;28;20714;-50
2021/07/23 04:06:21;;;;;;;11.47;7.50;;;15.50;99.90;;;;;;5039818;28;20207;-57
2021/07/23 04:08:49;;;;;;;8.53;6.23;;;15.50;99.90;;;;;;5037409;28;20292;-49
2021/07/23 04:11:26;;;;;;;9.37;6.30;;;15.50;99.90;;;;;;5041395;28;20576;-58
2021/07/23 04:13:54;;;;;;;9.77;6.30;;;15.50;99.90;;;;;;5023509;28;20204;-45
2021/07/23 04:16:22;;;;;;;9.77;6.77;;;15.50;99.90;;;;;;5040237;28;20211;-56
2021/07/23 04:18:50;;;;;;;8.77;7.07;;;15.50;99.90;;;;;;5038959;28;20187;-43
2021/07/23 04:21:31;;;;;;;7.87;6.57;;;15.50;99.90;;;;;;5039313;28;20209;-44
2021/07/23 04:24:00;;;;;;;7.63;5.87;;;15.50;99.90;;;;;;5038346;28;20212;-44
2021/07/23 04:26:27;;;;;;;11.00;5.87;;;15.50;99.90;;;;;;5039647;28;20349;-59
2021/07/23 04:28:54;;;;;;;8.70;6.33;;;15.40;99.90;;;;;;5029397;28;20206;-47
2021/07/23 04:31:22;;;;;;;8.33;5.97;;;15.40;99.90;;;;;;5039267;28;20619;-59
2021/07/23 04:34:02;;;;;;;10.67;7.07;;;15.40;99.90;;;;;;5043095;28;20203;-44
2021/07/23 04:36:35;;;;;;;11.27;7.00;;;15.50;99.90;;;;;;5035702;28;20206;-45
2021/07/23 04:39:21;;;;;;;8.20;6.40;;;15.40;99.90;;;;;;5039148;28;20218;-60
2021/07/23 04:41:49;;;;;;;10.90;6.53;;;15.40;99.90;;;;;;5038503;28;20207;-47
2021/07/23 04:44:15;;;;;;;8.80;6.30;;;15.40;99.90;;;;;;5036353;28;20586;-60
2021/07/23 04:46:46;;;;;;;8.27;6.33;;;15.40;99.90;;;;;;5038259;28;20223;-44
2021/07/23 04:49:14;;;;;;;8.93;6.60;;;15.50;99.90;;;;;;5037308;28;20279;-58
2021/07/23 04:51:43;;;;;;;8.77;6.67;;;15.50;99.90;;;;;;5036417;28;20206;-44
2021/07/23 04:54:28;;;;;;;8.63;6.63;;;15.50;99.90;;;;;;5019445;28;20402;-50
2021/07/23 04:57:30;;;;;;;7.03;6.07;;;15.50;99.90;;;;;;5027464;28;20297;-48
2021/07/23 05:00:02;;;;;;;9.07;6.33;;;15.50;99.90;;;;;;5037634;28;20227;-57
2021/07/23 05:02:28;;;;;;;8.70;6.13;;;15.50;99.90;;;;;;5029196;28;20199;-46
2021/07/23 05:04:55;;;;;;;8.80;6.57;;;15.50;99.90;;;;;;5041666;28;20700;-49
2021/07/23 05:07:23;;;;;;;7.27;6.57;;;15.50;99.90;;;;;;5026396;28;20218;-46
2021/07/23 05:09:50;;;;;;;8.33;6.50;;;15.50;99.90;;;;;;5040912;28;20218;-49
2021/07/23 05:12:17;;;;;;;10.73;6.33;;;15.40;99.90;;;;;;5033215;28;20205;-51
2021/07/23 05:14:44;;;;;;;7.37;6.23;;;15.50;99.90;;;;;;5042480;28;20230;-45
2021/07/23 05:17:11;;;;;;;11.10;6.27;;;15.50;99.90;;;;;;5024132;28;20211;-57
2021/07/23 05:19:38;;;;;;;8.30;6.23;;;15.50;99.90;;;;;;5040836;28;20199;-47
2021/07/23 05:22:06;;;;;;;9.87;5.90;;;15.50;99.90;;;;;;5036891;28;20203;-56
2021/07/23 05:24:34;;;;;;;11.33;6.73;;;15.50;99.90;;;;;;5039176;28;20211;-45
2021/07/23 05:27:00;;;;;;;8.10;5.33;;;15.50;99.90;;;;;;5030994;28;20533;-55
2021/07/23 05:29:27;;;;;;;8.13;5.80;;;15.50;99.90;;;;;;5036294;28;20225;-51
2021/07/23 05:31:54;;;;;;;8.83;5.80;;;15.50;99.90;;;;;;5028966;28;20207;-44
2021/07/23 05:34:21;;;;;;;8.80;6.07;;;15.40;99.90;;;;;;5029068;28;20195;-46
2021/07/23 05:36:48;;;;;;;9.03;5.67;;;15.40;99.90;;;;;;5042345;28;20188;-48
2021/07/23 05:39:15;;;;;;;7.00;5.17;;;15.40;99.90;;;;;;5038238;28;20222;-56
2021/07/23 05:41:42;;;;;;;6.63;5.07;;;15.50;99.90;;;;;;5045638;28;20203;-45
2021/07/23 05:44:09;;;;;;;4.83;4.33;;;15.50;99.90;;;;;;5039134;28;20227;-56
2021/07/23 05:46:36;;;;;;;9.27;5.40;;;15.60;99.90;;;;;;5037534;28;20223;-51
2021/07/23 05:49:04;;;;;;;7.83;5.20;;;15.60;99.90;;;;;;5024894;28;20219;-56
2021/07/23 05:51:31;;;;;;;7.17;4.63;;;15.70;99.90;;;;;;5045671;28;20197;-44
2021/07/23 05:53:57;;;;;;;7.13;4.63;;;15.60;99.90;;;;;;5039399;28;20203;-55
2021/07/23 05:56:24;;;;;;;4.50;4.07;;;15.70;99.90;;;;;;5044141;28;20215;-49
2021/07/23 05:58:52;;;;;;;4.83;4.20;;;15.70;99.90;;;;;;5039387;28;20199;-58
2021/07/23 06:01:19;;;;;;;7.27;4.00;;;15.70;99.90;;;;;;5044678;28;20193;-48
2021/07/23 06:03:46;;;;;;;4.87;4.13;;;15.80;99.90;;;;;;5031758;28;20565;-54
2021/07/23 06:06:12;;;;;;;4.20;3.80;;;15.80;99.90;;;;;;5034267;28;20226;-47
2021/07/23 06:08:39;;;;;;;4.43;3.70;;;15.80;99.90;;;;;;5033971;28;20223;-55
2021/07/23 06:11:06;;;;;;;4.00;3.37;;;15.80;99.90;;;;;;5042867;28;20194;-44
2021/07/23 06:13:35;;;;;;;3.53;3.23;;;15.90;99.90;;;;;;5044227;28;20286;-44
2021/07/23 06:16:05;;;;;;;4.47;3.43;;;15.90;99.90;;;;;;5031747;28;20235;-43
2021/07/23 06:18:32;;;;;;;5.50;3.97;;;15.90;99.90;;;;;;5028285;28;20695;-48
2021/07/23 06:20:58;;;;;;;4.87;3.90;;;15.90;99.90;;;;;;5035946;28;20224;-50
2021/07/23 06:23:25;;;;;;;3.27;2.90;;;16.00;99.90;;;;;;5045225;28;20195;-50
2021/07/23 06:25:52;;;;;;;5.53;3.43;;;16.00;99.90;;;;;;5038200;28;20215;-51
2021/07/23 06:28:18;;;;;;;5.53;3.30;;;16.00;99.90;;;;;;5046057;28;20215;-48
2021/07/23 06:30:45;;;;;;;2.90;2.70;;;16.10;99.90;;;;;;5042851;28;20656;-48
2021/07/23 06:33:13;;;;;;;4.17;3.70;;;16.10;99.90;;;;;;5045784;28;20253;-49
2021/07/23 06:35:40;;;;;;;4.00;3.60;;;16.10;99.90;;;;;;5025287;28;20220;-42
2021/07/23 06:38:06;;;;;;;3.60;3.30;;;16.10;99.90;;;;;;5038618;28;20270;-49
2021/07/23 06:40:33;;;;;;;6.43;4.60;;;16.10;99.90;;;;;;5038026;28;20229;-45
2021/07/23 06:43:00;;;;;;;4.33;3.57;;;16.10;99.90;;;;;;5036922;28;20274;-50
2021/07/23 06:45:26;;;;;;;4.10;3.63;;;16.20;99.90;;;;;;5036952;28;20246;-50
2021/07/23 06:47:53;;;;;;;5.53;4.03;;;16.20;99.90;;;;;;5032175;28;20913;-49
2021/07/23 06:50:21;;;;;;;4.03;3.20;;;16.20;99.90;;;;;;5031669;28;20688;-48
2021/07/23 06:52:47;;;;;;;4.60;3.77;;;16.20;99.90;;;;;;5031576;28;20219;-46
2021/07/23 06:55:14;;;;;;;4.73;3.37;;;16.20;99.90;;;;;;5038092;28;20227;-51
2021/07/23 06:57:41;;;;;;;6.60;3.83;;;16.20;99.90;;;;;;5030397;28;20199;-50
2021/07/23 07:00:08;;;;;;;5.63;3.67;;;16.20;99.90;;;;;;5038748;28;20206;-45
2021/07/23 07:02:35;;;;;;;3.77;3.37;;;16.20;99.90;;;;;;5054602;28;20209;-51
2021/07/23 07:05:02;;;;;;;5.20;3.70;;;16.30;99.90;;;;;;5038051;28;20223;-46
2021/07/23 07:07:30;;;;;;;4.57;3.50;;;16.30;99.90;;;;;;5040474;28;20317;-48
2021/07/23 07:09:57;;;;;;;3.77;3.40;;;16.30;99.90;;;;;;5043523;28;20202;-47
2021/07/23 07:12:23;;;;;;;3.80;3.40;;;16.20;99.90;;;;;;5051689;28;20834;-53
2021/07/23 07:14:51;;;;;;;6.33;4.03;;;16.30;99.90;;;;;;5044974;28;20595;-52
2021/07/23 07:17:18;;;;;;;4.23;3.40;;;16.30;99.90;;;;;;5039168;28;20199;-52
2021/07/23 07:19:45;;;;;;;5.23;3.03;;;16.40;99.90;;;;;;5047769;28;20560;-48
2021/07/23 07:22:11;;;;;;;5.20;3.30;;;16.40;99.90;;;;;;5025989;28;20207;-48
2021/07/23 07:24:40;;;;;;;5.80;3.03;;;16.40;99.90;;;;;;5042424;28;20579;-53
2021/07/23 07:27:06;;;;;;;3.57;3.23;;;16.40;99.90;;;;;;5040991;28;20735;-45
2021/07/23 07:29:33;;;;;;;5.73;3.43;;;16.50;99.90;;;;;;5034009;28;20199;-51
2021/07/23 07:31:59;;;;;;;3.60;3.30;;;16.50;99.90;;;;;;5043376;28;20198;-45
2021/07/23 07:34:26;;;;;;;5.10;2.97;;;16.60;99.90;;;;;;5050153;28;20982;-51
2021/07/23 07:36:53;;;;;;;3.70;3.40;;;16.60;99.90;;;;;;5040218;28;20203;-45
2021/07/23 07:39:19;;;;;;;2.87;2.63;;;16.70;99.90;;;;;;5041846;28;20187;-50
2021/07/23 07:41:47;;;;;;;4.87;3.60;;;16.80;99.90;;;;;;5047029;28;20652;-53
2021/07/23 07:44:14;;;;;;;6.07;3.63;;;16.80;99.90;;;;;;5056438;28;20318;-52
2021/07/23 07:46:40;;;;;;;5.93;3.63;;;16.90;99.90;;;;;;5041769;28;20542;-51
2021/07/23 07:49:07;;;;;;;5.10;3.77;;;16.90;99.90;;;;;;5045966;28;20223;-48
2021/07/23 07:51:33;;;;;;;3.97;3.23;;;16.90;99.90;;;;;;5043696;28;20207;-50
2021/07/23 07:54:00;;;;;;;5.97;2.90;;;16.90;99.90;;;;;;5041300;28;20697;-44
2021/07/23 07:56:27;;;;;;;3.80;3.23;;;16.90;99.90;;;;;;5041458;28;20225;-55
2021/07/23 07:58:55;;;;;;;6.47;3.33;;;16.90;99.90;;;;;;5042374;28;20554;-47
2021/07/23 08:01:21;;;;;;;4.23;3.50;;;16.90;99.90;;;;;;5035688;28;20194;-49
2021/07/23 08:03:48;;;;;;;5.00;3.30;;;16.90;99.90;;;;;;5040910;28;20215;-50
2021/07/23 08:06:22;;;;;;;4.30;3.53;;;16.90;99.90;;;;;;5039767;28;20230;-55
2021/07/23 08:08:50;;;;;;;4.47;3.20;;;17.00;99.90;;;;;;5019547;28;20321;-55
2021/07/23 08:11:17;;;;;;;7.60;3.80;;;17.00;99.90;;;;;;5047613;28;20207;-44
2021/07/23 08:13:44;;;;;;;3.80;3.40;;;17.00;99.90;;;;;;5045997;28;20232;-46
2021/07/23 08:16:13;;;;;;;5.63;3.27;;;16.90;99.90;;;;;;5043463;28;20215;-45
2021/07/23 08:18:40;;;;;;;4.50;3.60;;;16.80;99.90;;;;;;5035951;28;20198;-46
2021/07/23 08:21:07;;;;;;;4.77;2.80;;;16.70;99.90;;;;;;5049025;28;20218;-44
2021/07/23 08:23:36;;;;;;;3.63;3.23;;;16.70;99.90;;;;;;5027027;28;20215;-42
2021/07/23 08:26:04;;;;;;;5.23;3.27;;;16.60;99.90;;;;;;5047727;28;20222;-46
2021/07/23 08:28:31;;;;;;;4.43;3.70;;;16.60;99.90;;;;;;5042158;28;20703;-40
2021/07/23 08:30:58;;;;;;;3.83;3.40;;;16.70;99.90;;;;;;5046420;28;20203;-47
2021/07/23 08:33:27;;;;;;;4.67;3.47;;;16.70;99.90;;;;;;5041503;28;20223;-42
2021/07/23 08:35:54;;;;;;;3.53;3.23;;;16.70;99.90;;;;;;5040702;28;20230;-47
2021/07/23 08:38:21;;;;;;;4.57;3.47;;;16.70;99.90;;;;;;5034778;28;20200;-41
2021/07/23 08:40:48;;;;;;;4.43;2.77;;;16.80;99.90;;;;;;5032112;28;20953;-46
2021/07/23 08:43:15;;;;;;;3.53;3.10;;;16.90;99.90;;;;;;5043512;28;20203;-45
2021/07/23 08:45:43;;;;;;;3.13;2.83;;;17.00;99.90;;;;;;5052378;28;20222;-49
2021/07/23 08:48:09;;;;;;;3.40;3.20;;;17.00;99.90;;;;;;5043066;28;20753;-51
2021/07/23 08:50:37;;;;;;;4.63;3.03;;;17.20;99.90;;;;;;5036207;28;20195;-42
2021/07/23 08:53:09;;;;;;;5.20;3.30;;;17.20;99.90;;;;;;5057467;28;20192;-42
2021/07/23 08:55:36;;;;;;;4.73;3.80;;;17.20;99.90;;;;;;5023279;28;20298;-46
2021/07/23 08:58:09;;;;;;;3.43;2.80;;;17.20;99.90;;;;;;5042424;28;20199;-46
2021/07/23 09:00:36;;;;;;;3.33;3.00;;;17.20;99.90;;;;;;5036297;28;20298;-44
2021/07/23 09:03:04;;;;;;;5.30;3.47;;;17.30;99.90;;;;;;5034130;28;20199;-43
2021/07/23 09:05:32;;;;;;;4.40;3.20;;;17.40;99.90;;;;;;5038627;28;20215;-42
2021/07/23 09:08:01;;;;;;;4.57;3.33;;;17.50;99.90;;;;;;5043585;28;20215;-46
2021/07/23 09:10:29;;;;;;;5.37;3.30;;;17.60;99.90;;;;;;5026366;28;20569;-43
2021/07/23 09:13:00;;;;;;;3.67;3.37;;;17.60;99.90;;;;;;5048888;28;20210;-45
2021/07/23 09:15:29;;;;;;;4.23;3.33;;;17.50;99.90;;;;;;5038471;28;20696;-44
2021/07/23 09:17:57;;;;;;;4.80;3.77;;;17.60;99.90;;;;;;5042028;28;20200;-45
2021/07/23 09:20:27;;;;;;;3.93;3.23;;;17.70;99.90;;;;;;5040406;28;20238;-42
2021/07/23 09:22:57;;;;;;;4.00;3.60;;;17.60;99.90;;;;;;5039641;28;20199;-42
2021/07/23 09:25:40;;;;;;;3.77;3.40;;;17.60;99.90;;;;;;5016658;28;20231;-42
2021/07/23 09:28:29;;;;;;;3.40;3.10;;;17.50;99.90;;;;;;5041334;28;20211;-43
2021/07/23 09:30:58;;;;;;;3.47;2.97;;;17.60;99.90;;;;;;5050222;28;20699;-42
2021/07/23 09:33:30;;;;;;;3.80;3.40;;;17.60;99.90;;;;;;5055478;28;20687;-43
2021/07/23 09:35:58;;;;;;;3.27;2.97;;;17.70;99.90;;;;;;5036154;28;20306;-43
2021/07/23 09:38:32;;;;;;;3.03;2.83;;;17.80;99.90;;;;;;5039722;28;20270;-41
2021/07/23 09:41:01;;;;;;;3.47;3.03;;;17.90;99.90;;;;;;5026954;28;20212;-43
2021/07/23 09:43:35;;;;;;;3.33;3.03;;;18.00;99.90;;;;;;5041862;28;20923;-42
2021/07/23 09:46:26;;;;;;;2.80;2.63;;;18.20;99.90;;;;;;5037513;28;20856;-42
2021/07/23 09:48:54;;;;;;;3.90;2.70;;;18.20;99.90;;;;;;5042521;28;20301;-42
2021/07/23 09:51:22;;;;;;;3.43;2.90;;;18.20;99.90;;;;;;5040083;28;20194;-44
2021/07/23 09:53:49;;;;;;;2.80;2.60;;;18.20;99.90;;;;;;5042333;28;20214;-44
2021/07/23 09:56:18;;;;;;;2.50;2.30;;;18.20;99.90;;;;;;5034461;28;20219;-42
2021/07/23 09:58:49;;;;;;;2.47;2.27;;;18.30;99.90;;;;;;5035348;28;20693;-48
2021/07/23 10:01:26;;;;;;;2.53;2.33;;;18.30;99.90;;;;;;5034679;28;20896;-44
2021/07/23 10:03:55;;;;;;;2.77;2.57;;;18.20;99.90;;;;;;5041870;28;20205;-45
2021/07/23 10:06:26;;;;;;;2.93;2.73;;;18.20;99.90;;;;;;5034408;28;20219;-42
2021/07/23 10:08:56;;;;;;;3.03;2.73;;;18.20;99.90;;;;;;5035225;28;20654;-45
2021/07/23 10:11:25;;;;;;;3.63;2.77;;;18.20;99.90;;;;;;5021630;28;20930;-47
2021/07/23 10:13:54;;;;;;;3.33;2.83;;;18.20;99.90;;;;;;5042007;28;20191;-43
2021/07/23 10:16:21;;;;;;;2.90;2.70;;;18.20;99.90;;;;;;5034269;28;20940;-42
2021/07/23 10:18:50;;;;;;;4.33;2.83;;;18.30;99.90;;;;;;5038125;28;20328;-43
2021/07/23 10:21:16;;;;;;;2.73;2.47;;;18.40;99.90;;;;;;5037403;28;20196;-43
2021/07/23 10:23:45;;;;;;;2.80;2.47;;;18.60;99.90;;;;;;5038779;28;20195;-42
2021/07/23 10:26:12;;;;;;;2.60;2.40;;;18.60;99.90;;;;;;5028558;28;20223;-43
2021/07/23 10:28:56;;;;;;;5.10;2.40;;;18.60;99.90;;;;;;5042680;28;20215;-44
2021/07/23 10:31:40;;;;;;;3.77;2.53;;;18.70;99.90;;;;;;5039511;28;20195;-43
2021/07/23 10:34:09;;;;;;;2.97;2.77;;;18.80;99.90;;;;;;5036767;28;20204;-43
2021/07/23 10:36:42;;;;;;;2.60;2.40;;;18.70;99.90;;;;;;5046164;28;20239;-42
2021/07/23 10:39:17;;;;;;;3.57;2.63;;;18.80;99.90;;;;;;5038481;28;20203;-42
2021/07/23 10:42:31;;;;;;;2.90;2.60;;;18.80;99.90;;;;;;5046144;28;20191;-42
2021/07/23 10:44:59;;;;;;;2.40;2.20;;;19.00;99.90;;;;;;5042589;28;20743;-43
2021/07/23 10:47:44;;;;;;;2.80;2.50;;;19.10;99.90;;;;;;5038680;28;20889;-42
2021/07/23 10:50:49;;;;;;;3.23;2.80;;;19.20;99.90;;;;;;5034976;28;20310;-43
2021/07/23 10:53:34;;;;;;;3.33;2.80;;;19.10;99.90;;;;;;5034899;28;20301;-44
2021/07/23 10:56:00;;;;;;;5.00;2.60;;;19.10;99.90;;;;;;5043198;28;20705;-43
2021/07/23 10:58:36;;;;;;;3.73;2.77;;;19.10;99.90;;;;;;5026211;28;20908;-43
2021/07/23 11:01:03;;;;;;;3.03;2.50;;;19.20;99.90;;;;;;5041978;28;20210;-43
2021/07/23 11:03:51;;;;;;;3.07;2.77;;;19.20;99.90;;;;;;5036236;28;20282;-43
2021/07/23 11:06:21;;;;;;;2.90;2.50;;;19.00;99.90;;;;;;5035598;28;20949;-43
2021/07/23 11:08:49;;;;;;;3.00;2.80;;;18.90;99.90;;;;;;5030837;28;20322;-45
2021/07/23 11:11:17;;;;;;;3.30;2.60;;;19.00;99.90;;;;;;5029507;28;20215;-43
2021/07/23 11:13:44;;;;;;;2.63;2.43;;;19.00;99.90;;;;;;5020393;28;20287;-46
2021/07/23 11:16:11;;;;;;;3.03;2.80;;;19.00;99.90;;;;;;5039259;28;20223;-44
2021/07/23 11:18:51;;;;;;;2.60;2.40;;;19.10;99.90;;;;;;5038296;28;20192;-45
2021/07/23 11:21:19;;;;;;;3.37;3.13;;;19.20;99.90;;;;;;5040604;28;20215;-44
2021/07/23 11:23:47;;;;;;;4.97;2.93;;;19.00;99.90;;;;;;5035867;28;20194;-43
2021/07/23 11:26:14;;;;;;;2.90;2.70;;;19.00;99.90;;;;;;5044679;28;20270;-44
2021/07/23 11:28:48;;;;;;;2.90;2.70;;;18.90;99.90;;;;;;5028868;28;20211;-43
2021/07/23 11:31:29;;;;;;;3.20;3.00;;;19.00;99.90;;;;;;5037722;28;20629;-42
2021/07/23 11:33:57;;;;;;;2.93;2.63;;;18.90;99.90;;;;;;5037020;28;20253;-43
2021/07/23 11:36:36;;;;;;;3.13;2.83;;;18.80;99.90;;;;;;5040209;28;20219;-43
2021/07/23 11:39:05;;;;;;;4.00;2.97;;;18.80;99.90;;;;;;5036316;28;20738;-42
2021/07/23 11:41:32;;;;;;;3.50;3.17;;;18.60;99.90;;;;;;5042586;28;20191;-43
2021/07/23 11:44:11;;;;;;;2.90;2.70;;;18.60;99.90;;;;;;5040625;28;20206;-43
2021/07/23 11:46:39;;;;;;;3.17;2.93;;;18.70;99.90;;;;;;5021881;28;20230;-47
2021/07/23 11:49:06;;;;;;;5.33;2.93;;;18.70;99.90;;;;;;5038254;28;20226;-44
2021/07/23 11:51:42;;;;;;;3.53;3.23;;;18.70;99.90;;;;;;5038066;28;20568;-44
2021/07/23 11:54:10;;;;;;;3.37;2.60;;;18.80;99.90;;;;;;5037360;28;20191;-43
2021/07/23 11:56:37;;;;;;;2.97;2.67;;;18.80;99.90;;;;;;5036762;28;20199;-44
2021/07/23 11:59:04;;;;;;;3.57;2.80;;;18.90;99.90;;;;;;5042659;28;20190;-45
2021/07/23 12:01:35;;;;;;;2.80;2.60;;;18.90;99.90;;;;;;5029480;28;20364;-44
2021/07/23 12:04:02;;;;;;;2.80;2.60;;;19.00;99.90;;;;;;5040962;28;20191;-45
2021/07/23 12:06:29;;;;;;;2.97;2.77;;;19.00;99.90;;;;;;5039339;28;20330;-44
2021/07/23 12:08:59;;;;;;;2.93;2.73;;;19.00;99.90;;;;;;5031388;28;20219;-44
2021/07/23 12:11:28;;;;;;;4.23;2.97;;;18.90;99.90;;;;;;5038352;28;20199;-45
2021/07/23 12:13:55;;;;;;;4.20;2.70;;;19.00;99.90;;;;;;5040527;28;20782;-46
2021/07/23 12:16:21;;;;;;;3.10;2.80;;;19.10;99.90;;;;;;5043616;28;20223;-45
2021/07/23 12:18:58;;;;;;;3.80;2.50;;;19.20;99.90;;;;;;5027211;28;20210;-45
2021/07/23 12:21:25;;;;;;;3.10;2.80;;;19.20;99.90;;;;;;5040320;28;20203;-44
2021/07/23 12:24:00;;;;;;;3.27;2.97;;;19.30;99.90;;;;;;5034875;28;20194;-44
2021/07/23 12:26:29;;;;;;;2.90;2.60;;;19.30;99.90;;;;;;5036454;28;20223;-43
2021/07/23 12:28:56;;;;;;;2.90;2.63;;;19.30;99.90;;;;;;5037810;28;20219;-42
2021/07/23 12:31:23;;;;;;;5.43;2.70;;;19.40;99.90;;;;;;5037307;28;20280;-42
2021/07/23 12:34:07;;;;;;;5.93;3.10;;;19.40;99.90;;;;;;5019927;28;20200;-42
2021/07/23 12:36:47;;;;;;;3.97;2.80;;;19.30;99.90;;;;;;5037871;28;20203;-45
2021/07/23 12:39:15;;;;;;;3.47;2.63;;;19.30;99.90;;;;;;5038172;28;20195;-41
2021/07/23 12:41:45;;;;;;;3.10;2.80;;;19.40;99.90;;;;;;5036366;28;20274;-44
2021/07/23 12:44:13;;;;;;;3.20;2.87;;;19.50;99.90;;;;;;5042373;28;20206;-42
2021/07/23 12:46:41;;;;;;;3.67;2.93;;;19.60;99.90;;;;;;5033969;28;20196;-43
2021/07/23 12:49:12;;;;;;;4.97;3.00;;;19.60;99.90;;;;;;5029664;28;20211;-42
2021/07/23 12:51:38;;;;;;;5.03;3.00;;;19.70;99.90;;;;;;5038418;28;20203;-43
2021/07/23 12:54:06;;;;;;;3.83;2.97;;;19.70;99.90;;;;;;5037078;28;20665;-42
2021/07/23 12:56:36;;;;;;;5.47;3.37;;;19.70;99.90;;;;;;5041458;28;20537;-44
2021/07/23 12:59:24;;;;;;;3.37;3.07;;;19.70;99.90;;;;;;5039060;28;20195;-42